sensor_id;sensor_type;location;lat;lon;timestamp;pressure;altitude;pressure_sealevel;temperature;humidity
10700;BME280;5401;41.986;21.452;2023-03-18T00:00:16;98894.84;;;6.75;53.91
10700;BME280;5401;41.986;21.452;2023-03-18T00:02:44;98875.44;;;6.67;53.78
10700;BME280;5401;41.986;21.452;2023-03-18T00:05:14;98894.38;;;6.72;53.63
10700;BME280;5401;41.986;21.452;2023-03-18T00:07:41;98891.88;;;6.70;54.07
10700;BME280;5401;41.986;21.452;2023-03-18T00:10:10;98890.09;;;6.63;53.95
10700;BME280;5401;41.986;21.452;2023-03-18T00:12:38;98898.53;;;6.66;54.26
10700;BME280;5401;41.986;21.452;2023-03-18T00:15:08;98883.94;;;6.62;53.87
10700;BME280;5401;41.986;21.452;2023-03-18T00:17:37;98877.03;;;6.53;53.88
10700;BME280;5401;41.986;21.452;2023-03-18T00:20:07;98890.44;;;6.60;54.19
10700;BME280;5401;41.986;21.452;2023-03-18T00:22:37;98873.88;;;6.50;54.04
10700;BME280;5401;41.986;21.452;2023-03-18T00:25:06;98885.00;;;6.53;54.22
10700;BME280;5401;41.986;21.452;2023-03-18T00:27:35;98879.84;;;6.52;54.06
10700;BME280;5401;41.986;21.452;2023-03-18T00:30:04;98882.38;;;6.45;54.26
10700;BME280;5401;41.986;21.452;2023-03-18T00:32:32;98878.78;;;6.39;54.30
10700;BME280;5401;41.986;21.452;2023-03-18T00:34:59;98876.56;;;6.42;54.41
10700;BME280;5401;41.986;21.452;2023-03-18T00:37:27;98843.47;;;6.22;54.63
10700;BME280;5401;41.986;21.452;2023-03-18T00:40:02;98874.28;;;6.39;54.86
10700;BME280;5401;41.986;21.452;2023-03-18T00:42:32;98863.50;;;6.33;54.88
10700;BME280;5401;41.986;21.452;2023-03-18T00:45:05;98844.59;;;6.20;54.67
10700;BME280;5401;41.986;21.452;2023-03-18T00:47:33;98850.28;;;6.17;55.00
10700;BME280;5401;41.986;21.452;2023-03-18T00:50:04;98860.75;;;6.18;55.15
10700;BME280;5401;41.986;21.452;2023-03-18T00:52:33;98846.16;;;6.14;55.01
10700;BME280;5401;41.986;21.452;2023-03-18T00:55:03;98842.84;;;6.12;55.09
10700;BME280;5401;41.986;21.452;2023-03-18T00:57:32;98833.25;;;5.96;54.89
10700;BME280;5401;41.986;21.452;2023-03-18T00:59:59;98844.53;;;5.98;55.41
10700;BME280;5401;41.986;21.452;2023-03-18T01:02:27;98839.59;;;5.95;55.35
10700;BME280;5401;41.986;21.452;2023-03-18T01:04:55;98835.09;;;5.95;55.42
10700;BME280;5401;41.986;21.452;2023-03-18T01:07:24;98832.59;;;5.94;55.42
10700;BME280;5401;41.986;21.452;2023-03-18T01:09:52;98835.25;;;5.94;55.76
10700;BME280;5401;41.986;21.452;2023-03-18T01:12:21;98835.44;;;5.92;55.44
10700;BME280;5401;41.986;21.452;2023-03-18T01:14:50;98832.13;;;5.90;55.33
10700;BME280;5401;41.986;21.452;2023-03-18T01:17:18;98829.66;;;5.89;55.63
10700;BME280;5401;41.986;21.452;2023-03-18T01:19:45;98823.00;;;5.85;55.57
10700;BME280;5401;41.986;21.452;2023-03-18T01:22:13;98822.34;;;5.83;55.98
10700;BME280;5401;41.986;21.452;2023-03-18T01:24:41;98832.31;;;5.81;55.65
10700;BME280;5401;41.986;21.452;2023-03-18T01:27:10;98825.69;;;5.77;55.77
10700;BME280;5401;41.986;21.452;2023-03-18T01:29:39;98839.16;;;5.75;55.61
10700;BME280;5401;41.986;21.452;2023-03-18T01:32:06;98828.72;;;5.74;55.97
10700;BME280;5401;41.986;21.452;2023-03-18T01:34:34;98832.47;;;5.71;55.83
10700;BME280;5401;41.986;21.452;2023-03-18T01:37:02;98827.03;;;5.65;55.90
10700;BME280;5401;41.986;21.452;2023-03-18T01:39:30;98829.22;;;5.62;55.92
10700;BME280;5401;41.986;21.452;2023-03-18T01:41:59;98833.03;;;5.59;55.61
10700;BME280;5401;41.986;21.452;2023-03-18T01:44:26;98828.72;;;5.58;55.77
10700;BME280;5401;41.986;21.452;2023-03-18T01:46:56;98829.03;;;5.55;56.38
10700;BME280;5401;41.986;21.452;2023-03-18T01:49:26;98828.75;;;5.50;55.85
10700;BME280;5401;41.986;21.452;2023-03-18T01:51:57;98826.09;;;5.50;56.03
10700;BME280;5401;41.986;21.452;2023-03-18T01:54:27;98824.91;;;5.45;56.08
10700;BME280;5401;41.986;21.452;2023-03-18T01:56:56;98823.44;;;5.42;56.02
10700;BME280;5401;41.986;21.452;2023-03-18T01:59:26;98800.25;;;5.29;56.62
10700;BME280;5401;41.986;21.452;2023-03-18T02:02:00;98825.59;;;5.39;56.40
10700;BME280;5401;41.986;21.452;2023-03-18T02:04:34;98818.50;;;5.39;56.70
10700;BME280;5401;41.986;21.452;2023-03-18T02:07:04;98820.28;;;5.39;56.45
10700;BME280;5401;41.986;21.452;2023-03-18T02:09:32;98787.63;;;5.23;56.70
10700;BME280;5401;41.986;21.452;2023-03-18T02:12:07;98814.31;;;5.37;56.80
10700;BME280;5401;41.986;21.452;2023-03-18T02:14:35;98813.66;;;5.35;56.84
10700;BME280;5401;41.986;21.452;2023-03-18T02:17:07;98821.16;;;5.32;56.45
10700;BME280;5401;41.986;21.452;2023-03-18T02:19:51;98818.16;;;5.27;56.51
10700;BME280;5401;41.986;21.452;2023-03-18T02:22:25;98802.25;;;5.11;56.65
10700;BME280;5401;41.986;21.452;2023-03-18T02:25:03;98804.59;;;5.06;57.28
10700;BME280;5401;41.986;21.452;2023-03-18T02:27:36;98826.63;;;5.14;56.84
10700;BME280;5401;41.986;21.452;2023-03-18T02:30:09;98812.88;;;5.11;57.06
10700;BME280;5401;41.986;21.452;2023-03-18T02:32:38;98816.38;;;5.03;57.62
10700;BME280;5401;41.986;21.452;2023-03-18T02:35:10;98817.53;;;5.01;56.86
10700;BME280;5401;41.986;21.452;2023-03-18T02:37:39;98818.38;;;5.01;57.60
10700;BME280;5401;41.986;21.452;2023-03-18T02:40:14;98811.22;;;5.02;57.12
10700;BME280;5401;41.986;21.452;2023-03-18T02:42:43;98813.22;;;5.00;57.13
10700;BME280;5401;41.986;21.452;2023-03-18T02:45:20;98793.84;;;4.84;57.05
10700;BME280;5401;41.986;21.452;2023-03-18T02:47:54;98810.72;;;4.91;57.82
10700;BME280;5401;41.986;21.452;2023-03-18T02:50:22;98807.09;;;4.92;57.53
10700;BME280;5401;41.986;21.452;2023-03-18T02:52:50;98803.63;;;4.91;58.10
10700;BME280;5401;41.986;21.452;2023-03-18T02:55:17;98778.75;;;4.76;57.84
10700;BME280;5401;41.986;21.452;2023-03-18T02:57:46;98818.69;;;4.91;57.61
10700;BME280;5401;41.986;21.452;2023-03-18T03:00:14;98816.53;;;4.86;57.23
10700;BME280;5401;41.986;21.452;2023-03-18T03:02:42;98819.34;;;4.85;57.63
10700;BME280;5401;41.986;21.452;2023-03-18T03:05:11;98807.75;;;4.86;58.29
10700;BME280;5401;41.986;21.452;2023-03-18T03:07:40;98813.22;;;4.84;57.83
10700;BME280;5401;41.986;21.452;2023-03-18T03:10:10;98813.22;;;4.84;58.04
10700;BME280;5401;41.986;21.452;2023-03-18T03:12:37;98814.53;;;4.80;58.32
10700;BME280;5401;41.986;21.452;2023-03-18T03:15:08;98806.94;;;4.77;57.64
10700;BME280;5401;41.986;21.452;2023-03-18T03:17:36;98805.44;;;4.75;58.06
10700;BME280;5401;41.986;21.452;2023-03-18T03:20:05;98803.63;;;4.75;58.01
10700;BME280;5401;41.986;21.452;2023-03-18T03:22:33;98809.22;;;4.72;57.62
10700;BME280;5401;41.986;21.452;2023-03-18T03:25:02;98799.28;;;4.66;57.69
10700;BME280;5401;41.986;21.452;2023-03-18T03:27:30;98807.25;;;4.66;58.42
10700;BME280;5401;41.986;21.452;2023-03-18T03:29:58;98810.25;;;4.63;57.76
10700;BME280;5401;41.986;21.452;2023-03-18T03:32:27;98808.59;;;4.62;58.01
10700;BME280;5401;41.986;21.452;2023-03-18T03:34:55;98807.94;;;4.61;58.55
10700;BME280;5401;41.986;21.452;2023-03-18T03:37:22;98815.03;;;4.60;58.79
10700;BME280;5401;41.986;21.452;2023-03-18T03:39:51;98808.09;;;4.59;58.78
10700;BME280;5401;41.986;21.452;2023-03-18T03:42:18;98807.41;;;4.57;58.06
10700;BME280;5401;41.986;21.452;2023-03-18T03:44:46;98813.69;;;4.56;58.22
10700;BME280;5401;41.986;21.452;2023-03-18T03:47:13;98817.34;;;4.55;58.43
10700;BME280;5401;41.986;21.452;2023-03-18T03:49:42;98811.38;;;4.53;58.68
10700;BME280;5401;41.986;21.452;2023-03-18T03:52:10;98813.53;;;4.50;58.82
10700;BME280;5401;41.986;21.452;2023-03-18T03:54:39;98807.91;;;4.45;58.45
10700;BME280;5401;41.986;21.452;2023-03-18T03:57:07;98813.53;;;4.42;58.03
10700;BME280;5401;41.986;21.452;2023-03-18T03:59:35;98765.28;;;4.07;58.68
10700;BME280;5401;41.986;21.452;2023-03-18T04:02:03;98814.84;;;4.38;58.94
10700;BME280;5401;41.986;21.452;2023-03-18T04:04:30;98815.81;;;4.29;58.16
10700;BME280;5401;41.986;21.452;2023-03-18T04:06:59;98808.66;;;4.22;59.18
10700;BME280;5401;41.986;21.452;2023-03-18T04:09:28;98809.00;;;4.19;59.17
10700;BME280;5401;41.986;21.452;2023-03-18T04:11:55;98813.50;;;4.18;58.72
10700;BME280;5401;41.986;21.452;2023-03-18T04:14:23;98809.84;;;4.19;58.90
10700;BME280;5401;41.986;21.452;2023-03-18T04:16:50;98809.84;;;4.19;59.05
10700;BME280;5401;41.986;21.452;2023-03-18T04:19:18;98813.16;;;4.21;58.52
10700;BME280;5401;41.986;21.452;2023-03-18T04:21:45;98798.91;;;4.14;58.57
10700;BME280;5401;41.986;21.452;2023-03-18T04:24:14;98805.34;;;4.20;58.89
10700;BME280;5401;41.986;21.452;2023-03-18T04:26:42;98812.63;;;4.18;58.59
10700;BME280;5401;41.986;21.452;2023-03-18T04:29:10;98816.44;;;4.15;59.59
10700;BME280;5401;41.986;21.452;2023-03-18T04:31:37;98809.66;;;4.13;59.27
10700;BME280;5401;41.986;21.452;2023-03-18T04:34:05;98800.53;;;4.07;59.73
10700;BME280;5401;41.986;21.452;2023-03-18T04:36:35;98809.00;;;4.11;58.89
10700;BME280;5401;41.986;21.452;2023-03-18T04:39:02;98800.53;;;4.07;59.40
10700;BME280;5401;41.986;21.452;2023-03-18T04:41:31;98811.47;;;4.04;59.13
10700;BME280;5401;41.986;21.452;2023-03-18T04:43:59;98811.91;;;4.00;59.79
10700;BME280;5401;41.986;21.452;2023-03-18T04:46:27;98801.31;;;3.92;59.00
10700;BME280;5401;41.986;21.452;2023-03-18T04:48:56;98802.19;;;4.00;58.95
10700;BME280;5401;41.986;21.452;2023-03-18T04:51:25;98810.59;;;4.04;59.20
10700;BME280;5401;41.986;21.452;2023-03-18T04:53:52;98795.91;;;4.09;59.29
10700;BME280;5401;41.986;21.452;2023-03-18T04:56:20;98795.97;;;4.49;59.44
10700;BME280;5401;41.986;21.452;2023-03-18T04:58:49;98807.06;;;5.23;58.46
10700;BME280;5401;41.986;21.452;2023-03-18T05:01:16;98802.41;;;5.87;57.86
10700;BME280;5401;41.986;21.452;2023-03-18T05:03:45;98807.69;;;6.55;57.08
10700;BME280;5401;41.986;21.452;2023-03-18T05:06:20;98807.38;;;7.31;55.87
10700;BME280;5401;41.986;21.452;2023-03-18T05:08:48;98820.00;;;8.08;54.38
10700;BME280;5401;41.986;21.452;2023-03-18T05:11:16;98807.53;;;8.79;53.72
10700;BME280;5401;41.986;21.452;2023-03-18T05:13:44;98808.28;;;9.41;52.32
10700;BME280;5401;41.986;21.452;2023-03-18T05:16:13;98811.25;;;10.20;51.33
10700;BME280;5401;41.986;21.452;2023-03-18T05:18:41;98816.03;;;10.90;50.65
10700;BME280;5401;41.986;21.452;2023-03-18T05:21:10;98803.31;;;11.56;49.23
10700;BME280;5401;41.986;21.452;2023-03-18T05:23:39;98809.13;;;12.22;48.93
10700;BME280;5401;41.986;21.452;2023-03-18T05:26:06;98814.09;;;12.68;48.06
10700;BME280;5401;41.986;21.452;2023-03-18T05:28:34;98810.91;;;12.90;47.80
10700;BME280;5401;41.986;21.452;2023-03-18T05:31:02;98809.19;;;13.02;47.91
10700;BME280;5401;41.986;21.452;2023-03-18T05:33:31;98810.25;;;13.01;47.88
10700;BME280;5401;41.986;21.452;2023-03-18T05:35:59;98810.50;;;13.24;47.33
10700;BME280;5401;41.986;21.452;2023-03-18T05:38:27;98812.31;;;13.78;46.21
10700;BME280;5401;41.986;21.452;2023-03-18T05:40:54;98819.41;;;14.32;45.68
10700;BME280;5401;41.986;21.452;2023-03-18T05:43:22;98812.13;;;14.68;45.53
10700;BME280;5401;41.986;21.452;2023-03-18T05:45:51;98817.47;;;14.86;45.47
10700;BME280;5401;41.986;21.452;2023-03-18T05:48:19;98817.84;;;15.19;44.85
10700;BME280;5401;41.986;21.452;2023-03-18T05:50:48;98810.13;;;15.22;45.33
10700;BME280;5401;41.986;21.452;2023-03-18T05:53:16;98817.00;;;15.47;44.89
10700;BME280;5401;41.986;21.452;2023-03-18T05:55:43;98821.94;;;15.73;44.66
10700;BME280;5401;41.986;21.452;2023-03-18T05:58:11;98815.03;;;16.11;44.10
10700;BME280;5401;41.986;21.452;2023-03-18T06:00:39;98825.16;;;16.27;44.16
10700;BME280;5401;41.986;21.452;2023-03-18T06:03:06;98817.72;;;16.45;43.69
10700;BME280;5401;41.986;21.452;2023-03-18T06:05:34;98823.78;;;16.75;42.95
10700;BME280;5401;41.986;21.452;2023-03-18T06:08:03;98822.28;;;16.95;43.39
10700;BME280;5401;41.986;21.452;2023-03-18T06:10:30;98822.31;;;16.83;42.50
10700;BME280;5401;41.986;21.452;2023-03-18T06:12:58;98815.34;;;16.60;43.20
10700;BME280;5401;41.986;21.452;2023-03-18T06:15:26;98822.69;;;16.76;43.50
10700;BME280;5401;41.986;21.452;2023-03-18T06:17:53;98835.16;;;16.77;42.64
10700;BME280;5401;41.986;21.452;2023-03-18T06:20:21;98830.75;;;16.48;42.70
10700;BME280;5401;41.986;21.452;2023-03-18T06:22:49;98834.66;;;16.41;43.22
10700;BME280;5401;41.986;21.452;2023-03-18T06:25:20;98825.03;;;16.44;43.11
10700;BME280;5401;41.986;21.452;2023-03-18T06:27:47;98827.97;;;16.09;43.02
10700;BME280;5401;41.986;21.452;2023-03-18T06:30:16;98832.66;;;15.91;43.48
10700;BME280;5401;41.986;21.452;2023-03-18T06:32:45;98831.91;;;15.61;43.81
10700;BME280;5401;41.986;21.452;2023-03-18T06:35:13;98837.69;;;15.76;44.10
10700;BME280;5401;41.986;21.452;2023-03-18T06:37:41;98826.06;;;16.09;43.30
10700;BME280;5401;41.986;21.452;2023-03-18T06:40:10;98841.31;;;16.61;42.80
10700;BME280;5401;41.986;21.452;2023-03-18T06:42:39;98845.78;;;16.94;42.79
10700;BME280;5401;41.986;21.452;2023-03-18T06:45:07;98837.72;;;17.22;42.93
10700;BME280;5401;41.986;21.452;2023-03-18T06:47:36;98842.03;;;17.50;41.85
10700;BME280;5401;41.986;21.452;2023-03-18T06:50:04;98843.69;;;17.68;42.02
10700;BME280;5401;41.986;21.452;2023-03-18T06:52:32;98842.56;;;17.80;41.92
10700;BME280;5401;41.986;21.452;2023-03-18T06:54:59;98837.88;;;17.76;41.48
10700;BME280;5401;41.986;21.452;2023-03-18T06:57:27;98835.16;;;17.43;41.63
10700;BME280;5401;41.986;21.452;2023-03-18T06:59:56;98817.38;;;17.19;42.14
10700;BME280;5401;41.986;21.452;2023-03-18T07:02:23;98843.59;;;17.47;41.26
10700;BME280;5401;41.986;21.452;2023-03-18T07:04:52;98825.03;;;17.39;41.97
10700;BME280;5401;41.986;21.452;2023-03-18T07:07:20;98846.75;;;16.88;41.53
10700;BME280;5401;41.986;21.452;2023-03-18T07:09:48;98849.94;;;16.46;42.13
10700;BME280;5401;41.986;21.452;2023-03-18T07:12:15;98847.69;;;16.43;42.52
10700;BME280;5401;41.986;21.452;2023-03-18T07:14:44;98842.31;;;16.21;42.50
10700;BME280;5401;41.986;21.452;2023-03-18T07:17:13;98842.53;;;15.97;42.47
10700;BME280;5401;41.986;21.452;2023-03-18T07:19:40;98841.00;;;16.12;42.51
10700;BME280;5401;41.986;21.452;2023-03-18T07:22:08;98842.91;;;16.34;42.96
10700;BME280;5401;41.986;21.452;2023-03-18T07:24:36;98840.91;;;16.18;42.82
10700;BME280;5401;41.986;21.452;2023-03-18T07:27:04;98833.38;;;15.98;42.76
10700;BME280;5401;41.986;21.452;2023-03-18T07:29:31;98835.00;;;15.99;42.68
10700;BME280;5401;41.986;21.452;2023-03-18T07:31:59;98812.59;;;15.98;42.54
10700;BME280;5401;41.986;21.452;2023-03-18T07:34:31;98831.38;;;16.27;42.30
10700;BME280;5401;41.986;21.452;2023-03-18T07:36:59;98833.47;;;15.91;42.65
10700;BME280;5401;41.986;21.452;2023-03-18T07:39:28;98833.00;;;15.83;43.21
10700;BME280;5401;41.986;21.452;2023-03-18T07:41:56;98836.19;;;16.03;43.01
10700;BME280;5401;41.986;21.452;2023-03-18T07:44:25;98833.22;;;16.15;42.62
10700;BME280;5401;41.986;21.452;2023-03-18T07:46:53;98847.13;;;16.19;42.52
10700;BME280;5401;41.986;21.452;2023-03-18T07:49:20;98823.50;;;16.37;42.38
10700;BME280;5401;41.986;21.452;2023-03-18T07:51:50;98840.28;;;16.89;42.56
10700;BME280;5401;41.986;21.452;2023-03-18T07:54:17;98832.66;;;17.14;41.82
10700;BME280;5401;41.986;21.452;2023-03-18T07:56:45;98830.03;;;17.30;40.10
10700;BME280;5401;41.986;21.452;2023-03-18T07:59:13;98836.50;;;17.29;39.94
10700;BME280;5401;41.986;21.452;2023-03-18T08:01:41;98840.16;;;16.96;40.25
10700;BME280;5401;41.986;21.452;2023-03-18T08:04:12;98805.88;;;16.85;39.62
10700;BME280;5401;41.986;21.452;2023-03-18T08:06:40;98840.97;;;17.35;40.07
10700;BME280;5401;41.986;21.452;2023-03-18T08:09:11;98832.66;;;17.25;40.25
10700;BME280;5401;41.986;21.452;2023-03-18T08:11:39;98835.31;;;16.98;39.57
10700;BME280;5401;41.986;21.452;2023-03-18T08:14:06;98829.78;;;16.65;40.72
10700;BME280;5401;41.986;21.452;2023-03-18T08:16:34;98835.06;;;16.72;40.41
10700;BME280;5401;41.986;21.452;2023-03-18T08:19:01;98833.31;;;16.66;40.58
10700;BME280;5401;41.986;21.452;2023-03-18T08:21:29;98836.72;;;16.61;40.76
10700;BME280;5401;41.986;21.452;2023-03-18T08:23:56;98826.25;;;16.65;40.70
10700;BME280;5401;41.986;21.452;2023-03-18T08:26:25;98823.59;;;16.53;41.59
10700;BME280;5401;41.986;21.452;2023-03-18T08:28:53;98833.84;;;16.40;41.39
10700;BME280;5401;41.986;21.452;2023-03-18T08:31:21;98833.03;;;16.17;41.58
10700;BME280;5401;41.986;21.452;2023-03-18T08:33:49;98838.88;;;15.91;41.46
10700;BME280;5401;41.986;21.452;2023-03-18T08:36:19;98818.09;;;15.92;41.91
10700;BME280;5401;41.986;21.452;2023-03-18T08:38:46;98830.19;;;16.23;41.58
10700;BME280;5401;41.986;21.452;2023-03-18T08:41:14;98825.03;;;16.22;41.71
10700;BME280;5401;41.986;21.452;2023-03-18T08:43:44;98827.41;;;16.18;41.43
10700;BME280;5401;41.986;21.452;2023-03-18T08:46:12;98820.44;;;16.11;42.06
10700;BME280;5401;41.986;21.452;2023-03-18T08:48:39;98826.31;;;15.97;41.67
10700;BME280;5401;41.986;21.452;2023-03-18T08:51:07;98819.16;;;16.02;41.64
10700;BME280;5401;41.986;21.452;2023-03-18T08:53:35;98819.31;;;16.18;41.61
10700;BME280;5401;41.986;21.452;2023-03-18T08:56:04;98824.31;;;16.04;41.24
10700;BME280;5401;41.986;21.452;2023-03-18T08:58:33;98810.59;;;15.82;41.43
10700;BME280;5401;41.986;21.452;2023-03-18T09:01:02;98806.69;;;15.67;41.62
10700;BME280;5401;41.986;21.452;2023-03-18T09:03:31;98802.72;;;15.70;41.73
10700;BME280;5401;41.986;21.452;2023-03-18T09:05:58;98809.63;;;16.00;41.71
10700;BME280;5401;41.986;21.452;2023-03-18T09:08:26;98811.88;;;15.91;41.50
10700;BME280;5401;41.986;21.452;2023-03-18T09:10:56;98803.22;;;15.26;41.55
10700;BME280;5401;41.986;21.452;2023-03-18T09:13:23;98801.38;;;15.38;42.21
10700;BME280;5401;41.986;21.452;2023-03-18T09:15:51;98785.00;;;15.73;41.65
10700;BME280;5401;41.986;21.452;2023-03-18T09:18:20;98792.38;;;16.01;41.55
10700;BME280;5401;41.986;21.452;2023-03-18T09:20:50;98782.84;;;16.09;41.29
10700;BME280;5401;41.986;21.452;2023-03-18T09:23:17;98773.00;;;16.26;40.93
10700;BME280;5401;41.986;21.452;2023-03-18T09:25:45;98775.91;;;16.13;41.21
10700;BME280;5401;41.986;21.452;2023-03-18T09:28:13;98744.59;;;15.67;41.64
10700;BME280;5401;41.986;21.452;2023-03-18T09:30:41;98775.59;;;15.99;41.37
10700;BME280;5401;41.986;21.452;2023-03-18T09:33:09;98769.59;;;16.08;41.58
10700;BME280;5401;41.986;21.452;2023-03-18T09:35:38;98753.50;;;16.02;41.27
10700;BME280;5401;41.986;21.452;2023-03-18T09:38:06;98765.50;;;15.94;41.12
10700;BME280;5401;41.986;21.452;2023-03-18T09:40:35;98762.19;;;16.04;41.21
10700;BME280;5401;41.986;21.452;2023-03-18T09:43:18;98752.09;;;16.10;41.15
10700;BME280;5401;41.986;21.452;2023-03-18T09:45:56;98751.25;;;16.33;41.14
10700;BME280;5401;41.986;21.452;2023-03-18T09:48:54;98752.84;;;16.56;40.50
10700;BME280;5401;41.986;21.452;2023-03-18T09:51:35;98744.69;;;16.84;40.86
10700;BME280;5401;41.986;21.452;2023-03-18T09:54:10;98741.03;;;17.17;40.72
10700;BME280;5401;41.986;21.452;2023-03-18T09:56:40;98731.03;;;17.34;39.72
10700;BME280;5401;41.986;21.452;2023-03-18T09:59:15;98736.84;;;17.26;40.01
10700;BME280;5401;41.986;21.452;2023-03-18T10:01:49;98733.31;;;17.26;40.39
10700;BME280;5401;41.986;21.452;2023-03-18T10:04:21;98730.34;;;17.11;39.81
10700;BME280;5401;41.986;21.452;2023-03-18T10:06:55;98722.34;;;16.88;39.59
10700;BME280;5401;41.986;21.452;2023-03-18T10:09:27;98716.34;;;16.86;40.30
10700;BME280;5401;41.986;21.452;2023-03-18T10:12:05;98711.19;;;16.85;39.72
10700;BME280;5401;41.986;21.452;2023-03-18T10:14:42;98718.63;;;16.78;39.95
10700;BME280;5401;41.986;21.452;2023-03-18T10:17:17;98714.88;;;16.79;39.53
10700;BME280;5401;41.986;21.452;2023-03-18T10:19:51;98713.50;;;16.93;39.55
10700;BME280;5401;41.986;21.452;2023-03-18T10:22:45;98705.72;;;16.96;39.27
10700;BME280;5401;41.986;21.452;2023-03-18T10:25:21;98703.41;;;16.88;39.44
10700;BME280;5401;41.986;21.452;2023-03-18T10:28:01;98714.09;;;17.11;39.10
10700;BME280;5401;41.986;21.452;2023-03-18T10:30:41;98703.88;;;17.13;39.65
10700;BME280;5401;41.986;21.452;2023-03-18T10:33:15;98689.19;;;17.09;38.95
10700;BME280;5401;41.986;21.452;2023-03-18T10:35:47;98685.69;;;17.25;39.31
10700;BME280;5401;41.986;21.452;2023-03-18T10:38:21;98687.81;;;17.23;38.89
10700;BME280;5401;41.986;21.452;2023-03-18T10:40:50;98691.75;;;17.32;39.17
10700;BME280;5401;41.986;21.452;2023-03-18T10:43:20;98676.16;;;17.39;38.65
10700;BME280;5401;41.986;21.452;2023-03-18T10:45:59;98683.94;;;17.51;38.26
10700;BME280;5401;41.986;21.452;2023-03-18T10:48:31;98673.84;;;17.63;38.05
10700;BME280;5401;41.986;21.452;2023-03-18T10:51:07;98673.44;;;17.92;37.92
10700;BME280;5401;41.986;21.452;2023-03-18T10:53:50;98678.41;;;18.00;37.32
10700;BME280;5401;41.986;21.452;2023-03-18T10:56:21;98653.78;;;18.02;37.92
10700;BME280;5401;41.986;21.452;2023-03-18T10:58:49;98666.34;;;18.29;37.45
10700;BME280;5401;41.986;21.452;2023-03-18T11:01:19;98653.22;;;18.42;37.64
10700;BME280;5401;41.986;21.452;2023-03-18T11:03:50;98649.56;;;18.58;36.79
10700;BME280;5401;41.986;21.452;2023-03-18T11:06:22;98658.13;;;18.71;36.69
10700;BME280;5401;41.986;21.452;2023-03-18T11:09:00;98650.59;;;18.78;37.20
10700;BME280;5401;41.986;21.452;2023-03-18T11:11:31;98644.84;;;18.23;36.80
10700;BME280;5401;41.986;21.452;2023-03-18T11:14:02;98652.72;;;17.82;37.44
10700;BME280;5401;41.986;21.452;2023-03-18T11:16:34;98649.03;;;17.34;37.29
10700;BME280;5401;41.986;21.452;2023-03-18T11:19:20;98641.72;;;17.34;37.92
10700;BME280;5401;41.986;21.452;2023-03-18T11:22:00;98644.34;;;17.46;38.31
10700;BME280;5401;41.986;21.452;2023-03-18T11:24:31;98636.66;;;17.21;38.11
10700;BME280;5401;41.986;21.452;2023-03-18T11:27:24;98637.78;;;17.09;37.06
10700;BME280;5401;41.986;21.452;2023-03-18T11:29:55;98627.66;;;16.88;37.76
10700;BME280;5401;41.986;21.452;2023-03-18T11:32:25;98622.19;;;16.83;37.80
10700;BME280;5401;41.986;21.452;2023-03-18T11:34:54;98621.63;;;16.98;37.31
10700;BME280;5401;41.986;21.452;2023-03-18T11:37:28;98623.28;;;17.15;37.78
10700;BME280;5401;41.986;21.452;2023-03-18T11:40:16;98641.25;;;17.21;37.49
10700;BME280;5401;41.986;21.452;2023-03-18T11:42:45;98626.53;;;16.84;37.73
10700;BME280;5401;41.986;21.452;2023-03-18T11:45:30;98624.38;;;16.86;38.19
10700;BME280;5401;41.986;21.452;2023-03-18T11:48:01;98620.81;;;16.97;38.14
10700;BME280;5401;41.986;21.452;2023-03-18T11:50:35;98612.88;;;16.91;37.83
10700;BME280;5401;41.986;21.452;2023-03-18T11:53:09;98619.41;;;16.95;37.27
10700;BME280;5401;41.986;21.452;2023-03-18T11:55:44;98616.78;;;16.83;37.58
10700;BME280;5401;41.986;21.452;2023-03-18T11:58:50;98616.84;;;17.05;37.45
10700;BME280;5401;41.986;21.452;2023-03-18T12:01:30;98618.19;;;17.18;37.01
10700;BME280;5401;41.986;21.452;2023-03-18T12:04:13;98589.25;;;17.03;37.76
10700;BME280;5401;41.986;21.452;2023-03-18T12:06:55;98604.06;;;17.33;37.86
10700;BME280;5401;41.986;21.452;2023-03-18T12:09:32;98612.75;;;17.35;37.15
10700;BME280;5401;41.986;21.452;2023-03-18T12:12:18;98598.47;;;17.07;37.44
10700;BME280;5401;41.986;21.452;2023-03-18T12:14:56;98609.63;;;17.10;37.02
10700;BME280;5401;41.986;21.452;2023-03-18T12:17:33;98608.34;;;16.96;37.89
10700;BME280;5401;41.986;21.452;2023-03-18T12:20:34;98604.00;;;16.79;37.22
10700;BME280;5401;41.986;21.452;2023-03-18T12:23:12;98595.69;;;16.53;37.41
10700;BME280;5401;41.986;21.452;2023-03-18T12:25:52;98586.44;;;16.49;37.55
10700;BME280;5401;41.986;21.452;2023-03-18T12:28:31;98608.25;;;16.75;37.38
10700;BME280;5401;41.986;21.452;2023-03-18T12:33:56;98573.75;;;16.66;37.25
10700;BME280;5401;41.986;21.452;2023-03-18T12:36:37;98599.50;;;17.01;37.79
10700;BME280;5401;41.986;21.452;2023-03-18T12:39:40;98593.09;;;16.90;37.58
10700;BME280;5401;41.986;21.452;2023-03-18T12:42:16;98598.59;;;16.95;37.89
10700;BME280;5401;41.986;21.452;2023-03-18T12:44:57;98603.19;;;17.11;37.12
10700;BME280;5401;41.986;21.452;2023-03-18T12:47:31;98592.03;;;17.24;36.99
10700;BME280;5401;41.986;21.452;2023-03-18T12:50:02;98598.47;;;17.07;36.64
10700;BME280;5401;41.986;21.452;2023-03-18T12:52:36;98604.00;;;16.95;37.08
10700;BME280;5401;41.986;21.452;2023-03-18T12:55:11;98598.75;;;16.89;37.52
10700;BME280;5401;41.986;21.452;2023-03-18T12:57:44;98594.34;;;16.83;37.64
10700;BME280;5401;41.986;21.452;2023-03-18T13:00:20;98585.06;;;16.95;37.87
10700;BME280;5401;41.986;21.452;2023-03-18T13:02:57;98606.88;;;17.21;37.47
10700;BME280;5401;41.986;21.452;2023-03-18T13:05:41;98595.84;;;17.44;37.19
10700;BME280;5401;41.986;21.452;2023-03-18T13:08:45;98597.13;;;17.58;36.25
10700;BME280;5401;41.986;21.452;2023-03-18T13:11:42;98598.97;;;17.74;37.13
10700;BME280;5401;41.986;21.452;2023-03-18T13:14:20;98591.66;;;17.74;36.78
10700;BME280;5401;41.986;21.452;2023-03-18T13:16:52;98581.81;;;17.89;36.62
10700;BME280;5401;41.986;21.452;2023-03-18T13:19:21;98591.38;;;17.97;36.54
10700;BME280;5401;41.986;21.452;2023-03-18T13:21:52;98583.91;;;17.83;35.74
10700;BME280;5401;41.986;21.452;2023-03-18T13:24:47;98578.34;;;17.73;37.10
10700;BME280;5401;41.986;21.452;2023-03-18T13:27:36;98585.03;;;17.86;36.98